Time;durP1;ratioP1;P1;durP2;ratioP2;P2;SDS_P1;SDS_P2;PMS_P1;PMS_P2;Temp;Humidity;BMP_temperature;BMP_pressure;BME280_temperature;BME280_humidity;BME280_pressure;Samples;Min_cycle;Max_cycle;Signal;HPM_P1;HPM_P2
2022/05/22 00:00:15;;;;;;;4.13;3.00;;;23.40;82.70;;;;;;5052277;28;20519;-58
2022/05/22 00:02:42;;;;;;;3.13;2.93;;;23.40;82.60;;;;;;5052230;28;20448;-61
2022/05/22 00:05:11;;;;;;;3.20;3.00;;;23.40;82.60;;;;;;5052194;28;20467;-59
2022/05/22 00:07:38;;;;;;;3.50;3.20;;;23.40;82.60;;;;;;5051765;28;20453;-62
2022/05/22 00:10:06;;;;;;;3.03;2.77;;;23.40;82.70;;;;;;5052182;28;20440;-61
2022/05/22 00:12:33;;;;;;;2.77;2.63;;;23.40;83.30;;;;;;5052433;28;20444;-59
2022/05/22 00:15:00;;;;;;;3.93;3.67;;;23.40;82.60;;;;;;5051969;28;20970;-59
2022/05/22 00:17:28;;;;;;;3.40;3.20;;;23.40;82.50;;;;;;5051539;28;20451;-60
2022/05/22 00:19:55;;;;;;;3.20;3.00;;;23.40;82.50;;;;;;5051841;28;20479;-61
2022/05/22 00:22:21;;;;;;;3.40;3.20;;;23.40;82.40;;;;;;5051919;28;20801;-60
2022/05/22 00:24:48;;;;;;;3.40;3.20;;;23.40;82.50;;;;;;5051747;28;20466;-57
2022/05/22 00:27:15;;;;;;;5.60;2.50;;;23.30;82.20;;;;;;5051064;28;20448;-61
2022/05/22 00:29:42;;;;;;;2.53;2.43;;;23.30;82.30;;;;;;5051806;28;20451;-61
2022/05/22 00:32:09;;;;;;;3.03;2.90;;;23.30;82.20;;;;;;5051884;28;20789;-61
2022/05/22 00:34:38;;;;;;;3.10;3.00;;;23.30;82.10;;;;;;5051689;28;20441;-60
2022/05/22 00:37:05;;;;;;;4.03;3.70;;;23.30;82.10;;;;;;5051385;28;20455;-61
2022/05/22 00:39:32;;;;;;;3.20;3.00;;;23.30;82.00;;;;;;5051626;28;20484;-61
2022/05/22 00:41:59;;;;;;;2.90;2.80;;;23.30;82.20;;;;;;5051362;28;20455;-61
2022/05/22 00:44:26;;;;;;;2.67;2.47;;;23.30;82.10;;;;;;5051406;28;20784;-61
2022/05/22 00:46:53;;;;;;;2.70;2.60;;;23.30;82.20;;;;;;5051210;28;20987;-61
2022/05/22 00:49:24;;;;;;;3.23;3.03;;;23.30;82.00;;;;;;5051528;28;20935;-61
2022/05/22 00:51:57;;;;;;;3.17;3.00;;;23.30;82.00;;;;;;5051480;28;20788;-56
2022/05/22 00:54:28;;;;;;;5.77;3.50;;;23.30;82.00;;;;;;5051230;28;20451;-60
2022/05/22 00:56:59;;;;;;;3.10;2.90;;;23.30;81.90;;;;;;5051513;28;20495;-60
2022/05/22 00:59:30;;;;;;;2.37;2.27;;;23.30;82.00;;;;;;5051278;28;20479;-60
2022/05/22 01:01:59;;;;;;;2.87;2.67;;;23.30;81.80;;;;;;5051480;28;20456;-60
2022/05/22 01:04:29;;;;;;;2.73;2.63;;;23.20;81.60;;;;;;5051600;28;20450;-60
2022/05/22 01:06:57;;;;;;;2.70;2.60;;;23.20;82.10;;;;;;5050983;28;20451;-59
2022/05/22 01:09:24;;;;;;;2.70;2.53;;;23.20;81.60;;;;;;5051407;28;20447;-61
2022/05/22 01:11:55;;;;;;;2.67;2.53;;;23.20;81.60;;;;;;5051394;28;20444;-61
2022/05/22 01:14:22;;;;;;;3.00;2.77;;;23.20;81.60;;;;;;5051463;28;20623;-59
2022/05/22 01:16:50;;;;;;;2.80;2.60;;;23.20;81.70;;;;;;5051068;28;20472;-59
2022/05/22 01:19:21;;;;;;;2.60;2.50;;;23.20;81.70;;;;;;5051035;28;20479;-58
2022/05/22 01:21:54;;;;;;;2.80;2.60;;;23.20;81.60;;;;;;5051033;28;21030;-59
2022/05/22 01:24:21;;;;;;;2.90;2.80;;;23.20;81.60;;;;;;5051324;28;20452;-59
2022/05/22 01:26:49;;;;;;;3.43;3.23;;;23.20;81.50;;;;;;5051198;28;20472;-62
2022/05/22 01:29:17;;;;;;;2.77;2.67;;;23.20;81.40;;;;;;5050912;28;20448;-61
2022/05/22 01:31:43;;;;;;;3.47;3.27;;;23.20;81.40;;;;;;5051432;28;20452;-59
2022/05/22 01:34:10;;;;;;;2.90;2.80;;;23.10;81.30;;;;;;5051101;28;20451;-60
2022/05/22 01:36:37;;;;;;;2.43;2.23;;;23.10;81.30;;;;;;5050914;28;20468;-57
2022/05/22 01:39:06;;;;;;;3.27;3.10;;;23.10;81.20;;;;;;5050827;28;21037;-58
2022/05/22 01:41:32;;;;;;;2.80;2.70;;;23.10;81.10;;;;;;5050708;28;20448;-59
2022/05/22 01:43:59;;;;;;;2.27;2.17;;;23.10;81.20;;;;;;5051292;28;20449;-58
2022/05/22 01:46:26;;;;;;;2.77;2.57;;;23.10;81.20;;;;;;5051024;28;20467;-57
2022/05/22 01:48:53;;;;;;;2.43;2.10;;;23.10;81.20;;;;;;5050735;28;20523;-57
2022/05/22 01:51:20;;;;;;;2.70;2.50;;;23.10;81.20;;;;;;5050943;28;20456;-59
2022/05/22 01:53:46;;;;;;;3.00;2.80;;;23.10;81.10;;;;;;5050757;28;20444;-56
2022/05/22 01:56:14;;;;;;;2.87;2.77;;;23.10;81.10;;;;;;5054259;28;20496;-57
2022/05/22 01:58:41;;;;;;;3.00;2.87;;;23.10;81.20;;;;;;5054217;28;20954;-58
2022/05/22 02:01:08;;;;;;;2.43;2.33;;;23.10;81.10;;;;;;5054867;28;20463;-54
2022/05/22 02:03:35;;;;;;;2.90;2.80;;;23.10;81.20;;;;;;5054559;28;20447;-57
2022/05/22 02:06:02;;;;;;;2.67;2.47;;;23.10;81.10;;;;;;5054104;28;20459;-58
2022/05/22 02:08:28;;;;;;;2.53;2.43;;;23.00;81.10;;;;;;5054193;28;20440;-60
2022/05/22 02:10:58;;;;;;;3.43;3.23;;;23.10;81.20;;;;;;5054395;28;20440;-58
2022/05/22 02:13:28;;;;;;;2.73;2.63;;;23.00;81.00;;;;;;5054072;28;20440;-58
2022/05/22 02:15:55;;;;;;;2.97;2.87;;;23.00;81.10;;;;;;5038868;28;20471;-59
2022/05/22 02:18:22;;;;;;;2.87;2.77;;;23.00;81.00;;;;;;5053921;28;20440;-56
2022/05/22 02:20:50;;;;;;;2.90;2.80;;;23.00;81.00;;;;;;5054068;28;21054;-58
2022/05/22 02:23:18;;;;;;;3.00;2.73;;;23.00;80.90;;;;;;5054277;28;20936;-57
2022/05/22 02:25:47;;;;;;;2.57;2.47;;;23.00;80.90;;;;;;5053444;28;20476;-57
2022/05/22 02:28:17;;;;;;;2.87;2.77;;;23.00;80.90;;;;;;5053713;28;20931;-60
2022/05/22 02:30:48;;;;;;;2.50;2.30;;;23.00;80.90;;;;;;5054284;28;20459;-60
2022/05/22 02:33:15;;;;;;;2.60;2.50;;;23.00;81.00;;;;;;5054014;28;20794;-58
2022/05/22 02:35:42;;;;;;;2.37;2.27;;;23.00;80.90;;;;;;5053454;28;20827;-57
2022/05/22 02:38:10;;;;;;;3.40;3.20;;;23.00;80.90;;;;;;5053665;28;20452;-57
2022/05/22 02:40:38;;;;;;;3.57;3.37;;;22.90;80.80;;;;;;5053763;28;20579;-58
2022/05/22 02:43:06;;;;;;;2.60;2.50;;;23.00;80.90;;;;;;5053679;28;20990;-58
2022/05/22 02:45:35;;;;;;;3.13;3.03;;;23.00;80.70;;;;;;5053349;28;20467;-56
2022/05/22 02:48:04;;;;;;;2.83;2.70;;;23.00;80.80;;;;;;5053495;28;20447;-57
2022/05/22 02:50:32;;;;;;;2.63;2.43;;;23.00;80.80;;;;;;5053530;28;20448;-59
2022/05/22 02:52:59;;;;;;;2.87;2.63;;;22.90;80.60;;;;;;5053535;28;20800;-57
2022/05/22 02:55:26;;;;;;;3.17;3.07;;;22.90;80.60;;;;;;5053509;28;20476;-59
2022/05/22 02:57:53;;;;;;;2.73;2.63;;;22.90;80.60;;;;;;5053192;28;20819;-59
2022/05/22 03:00:23;;;;;;;3.20;3.00;;;22.90;80.60;;;;;;5053607;28;20495;-54
2022/05/22 03:02:50;;;;;;;2.90;2.70;;;22.90;80.40;;;;;;5053472;28;20440;-59
2022/05/22 03:05:20;;;;;;;2.63;2.53;;;22.90;80.40;;;;;;5053180;28;20464;-60
2022/05/22 03:07:47;;;;;;;3.20;3.00;;;22.90;80.40;;;;;;5052973;28;20829;-61
2022/05/22 03:10:16;;;;;;;3.17;2.97;;;22.90;80.40;;;;;;5053234;28;20441;-57
2022/05/22 03:12:44;;;;;;;3.03;2.93;;;22.90;80.50;;;;;;5053172;28;20444;-58
2022/05/22 03:15:12;;;;;;;3.17;3.03;;;22.90;80.50;;;;;;5053182;28;20472;-56
2022/05/22 03:17:39;;;;;;;3.07;2.87;;;22.90;80.60;;;;;;5052857;28;20449;-61
2022/05/22 03:20:07;;;;;;;3.33;3.13;;;22.90;80.60;;;;;;5052494;28;20480;-58
2022/05/22 03:22:35;;;;;;;2.63;2.43;;;22.90;80.50;;;;;;5053025;28;20463;-58
2022/05/22 03:25:02;;;;;;;3.97;3.77;;;22.90;80.50;;;;;;5052845;28;20829;-59
2022/05/22 03:27:28;;;;;;;3.13;2.93;;;22.90;80.60;;;;;;5052772;28;20861;-58
2022/05/22 03:29:55;;;;;;;4.83;3.10;;;22.90;80.50;;;;;;5052773;28;20448;-60
2022/05/22 03:32:22;;;;;;;2.87;2.77;;;22.90;80.40;;;;;;5052575;28;20819;-58
2022/05/22 03:34:49;;;;;;;3.00;2.90;;;22.90;80.40;;;;;;5052709;28;20444;-54
2022/05/22 03:37:16;;;;;;;2.97;2.77;;;22.80;80.30;;;;;;5052570;28;20444;-57
2022/05/22 03:39:44;;;;;;;3.37;3.27;;;22.80;80.50;;;;;;5052136;28;20484;-59
2022/05/22 03:42:11;;;;;;;3.77;3.60;;;22.80;80.30;;;;;;5052427;28;20459;-57
2022/05/22 03:44:38;;;;;;;2.77;2.67;;;22.80;80.30;;;;;;5052709;28;20441;-58
2022/05/22 03:47:05;;;;;;;3.70;3.50;;;22.80;80.30;;;;;;5052356;28;20676;-58
2022/05/22 03:49:32;;;;;;;3.27;3.07;;;22.80;80.30;;;;;;5052206;28;20463;-57
2022/05/22 03:51:59;;;;;;;3.07;2.87;;;22.80;80.30;;;;;;5052453;28;20535;-58
2022/05/22 03:54:26;;;;;;;3.00;2.80;;;22.80;80.30;;;;;;5052360;28;20445;-58
2022/05/22 03:56:55;;;;;;;2.47;2.37;;;22.80;80.30;;;;;;5052072;28;20464;-55
2022/05/22 03:59:21;;;;;;;2.90;2.80;;;22.80;80.30;;;;;;5052300;28;20806;-56
2022/05/22 04:01:48;;;;;;;3.10;2.90;;;22.80;80.30;;;;;;5051816;28;20440;-60
2022/05/22 04:04:15;;;;;;;2.97;2.77;;;22.80;80.40;;;;;;5052094;28;20822;-58
2022/05/22 04:06:41;;;;;;;2.50;2.40;;;22.80;80.20;;;;;;5052055;28;20990;-57
2022/05/22 04:09:09;;;;;;;3.87;3.60;;;22.80;80.30;;;;;;5052223;28;20447;-58
2022/05/22 04:11:39;;;;;;;2.40;2.30;;;22.80;80.40;;;;;;5052040;28;20858;-57
2022/05/22 04:14:07;;;;;;;3.23;2.83;;;22.80;80.30;;;;;;5051900;28;20447;-57
2022/05/22 04:16:35;;;;;;;3.77;2.90;;;22.80;80.30;;;;;;5051777;28;20547;-56
2022/05/22 04:19:02;;;;;;;3.50;3.30;;;22.70;80.30;;;;;;5051699;28;20462;-56
2022/05/22 04:21:28;;;;;;;3.37;3.17;;;22.70;80.30;;;;;;5051893;28;21025;-60
2022/05/22 04:26:39;;;;;;;3.13;2.83;;;22.70;80.30;;;;;;5090545;22;20837;-63
2022/05/22 04:29:07;;;;;;;2.83;2.73;;;22.70;80.30;;;;;;5071610;28;20941;-63
2022/05/22 04:31:34;;;;;;;3.50;3.40;;;22.70;81.10;;;;;;5071803;28;20449;-62
2022/05/22 04:34:01;;;;;;;3.20;3.10;;;22.70;80.30;;;;;;5071834;28;20443;-63
2022/05/22 04:36:27;;;;;;;3.03;2.73;;;22.70;80.30;;;;;;5058371;28;20819;-63
2022/05/22 04:38:54;;;;;;;2.90;2.80;;;22.70;80.40;;;;;;5051183;28;20943;-63
2022/05/22 04:41:21;;;;;;;3.53;3.23;;;22.70;80.40;;;;;;5051184;28;20483;-62
2022/05/22 04:43:48;;;;;;;3.43;3.10;;;22.70;80.30;;;;;;5051936;28;20819;-63
2022/05/22 04:46:16;;;;;;;3.20;3.00;;;22.70;80.30;;;;;;5051502;28;20558;-60
2022/05/22 04:48:42;;;;;;;3.60;3.30;;;22.70;80.40;;;;;;5051379;28;20838;-63
2022/05/22 04:51:09;;;;;;;3.30;3.10;;;22.70;80.40;;;;;;5050925;28;20437;-64
2022/05/22 04:53:36;;;;;;;3.37;3.17;;;22.70;80.40;;;;;;5051554;28;20448;-60
2022/05/22 04:56:03;;;;;;;3.50;3.30;;;22.70;80.70;;;;;;5051907;28;20464;-65
2022/05/22 04:58:30;;;;;;;3.03;2.93;;;22.80;81.60;;;;;;5051367;28;20499;-65
2022/05/22 05:00:57;;;;;;;3.50;3.30;;;22.80;81.60;;;;;;5051034;28;21001;-61
2022/05/22 05:03:26;;;;;;;3.60;3.23;;;22.80;81.50;;;;;;5051524;28;20445;-65
2022/05/22 05:05:55;;;;;;;3.20;2.90;;;22.80;81.60;;;;;;5051986;28;20464;-63
2022/05/22 05:08:23;;;;;;;2.70;2.57;;;22.90;81.60;;;;;;5051972;28;20535;-64
2022/05/22 05:10:51;;;;;;;3.20;3.00;;;22.80;81.70;;;;;;5052153;28;20444;-60
2022/05/22 05:13:18;;;;;;;3.20;3.03;;;22.90;82.40;;;;;;5051530;28;20453;-60
2022/05/22 05:15:45;;;;;;;3.00;2.90;;;22.90;82.40;;;;;;5051834;28;20464;-59
2022/05/22 05:18:13;;;;;;;4.67;3.50;;;22.90;82.30;;;;;;5051731;28;20483;-60
2022/05/22 05:20:46;;;;;;;3.60;3.40;;;22.90;82.50;;;;;;5052124;28;20899;-60
2022/05/22 05:23:12;;;;;;;2.90;2.80;;;22.90;82.50;;;;;;5051985;28;20445;-62
2022/05/22 05:25:39;;;;;;;4.37;4.07;;;23.00;82.40;;;;;;5051998;28;20499;-67
2022/05/22 05:28:06;;;;;;;4.77;4.57;;;23.00;82.80;;;;;;5051748;28;20440;-67
2022/05/22 05:30:33;;;;;;;7.00;3.20;;;23.00;82.30;;;;;;5055094;28;20958;-62
2022/05/22 05:33:00;;;;;;;3.20;3.00;;;23.10;82.30;;;;;;5056173;28;20786;-64
2022/05/22 05:35:27;;;;;;;3.40;3.10;;;23.10;81.80;;;;;;5055939;28;20464;-64
2022/05/22 05:37:55;;;;;;;3.37;3.27;;;23.10;81.80;;;;;;5055108;28;20444;-61
2022/05/22 05:40:22;;;;;;;3.87;3.67;;;23.20;81.70;;;;;;5055375;28;20483;-60
2022/05/22 05:42:49;;;;;;;6.78;5.82;;;23.40;81.50;;;;;;5054396;28;20435;-62
2022/05/22 05:45:17;;;;;;;15.43;12.17;;;23.40;80.70;;;;;;5055529;28;20232;-62
2022/05/22 05:47:47;;;;;;;18.27;13.23;;;23.50;80.20;;;;;;5055072;28;20885;-59
2022/05/22 05:50:14;;;;;;;15.30;11.80;;;23.70;79.80;;;;;;5055464;28;20815;-66
2022/05/22 05:52:41;;;;;;;13.50;10.97;;;23.60;79.50;;;;;;5055709;28;20443;-66
2022/05/22 05:55:10;;;;;;;20.37;9.90;;;23.60;79.60;;;;;;5055971;28;20478;-63
2022/05/22 05:57:37;;;;;;;9.10;8.03;;;23.60;79.80;;;;;;5055032;28;20448;-62
2022/05/22 06:00:07;;;;;;;9.63;8.80;;;23.60;80.00;;;;;;5055386;28;20475;-63
2022/05/22 06:02:34;;;;;;;8.73;6.83;;;23.60;79.80;;;;;;5055806;28;20818;-63
2022/05/22 06:05:01;;;;;;;7.80;7.17;;;23.60;79.70;;;;;;5055570;28;20813;-63
2022/05/22 06:07:28;;;;;;;10.97;6.73;;;23.60;79.60;;;;;;5055172;28;20448;-63
2022/05/22 06:09:55;;;;;;;6.50;5.60;;;23.60;79.60;;;;;;5055417;28;20933;-64
2022/05/22 06:12:23;;;;;;;5.82;5.20;;;23.60;79.50;;;;;;5054650;28;20440;-65
2022/05/22 06:14:50;;;;;;;6.20;5.63;;;23.70;79.10;;;;;;5055807;28;20259;-66
2022/05/22 06:17:17;;;;;;;8.33;6.73;;;23.60;79.00;;;;;;5055075;28;20452;-64
2022/05/22 06:19:57;;;;;;;6.77;5.30;;;23.70;79.10;;;;;;5054964;28;20452;-63
2022/05/22 06:22:25;;;;;;;5.50;5.10;;;23.60;78.90;;;;;;5054973;28;20957;-64
2022/05/22 06:24:53;;;;;;;6.90;5.20;;;23.60;79.20;;;;;;5054811;28;20444;-66
2022/05/22 06:27:20;;;;;;;4.77;4.33;;;23.60;79.30;;;;;;5054645;28;20452;-64
2022/05/22 06:29:48;;;;;;;5.00;4.60;;;23.60;79.20;;;;;;5054232;28;20448;-64
2022/05/22 06:32:17;;;;;;;5.37;4.87;;;23.60;79.10;;;;;;5054119;28;20476;-64
2022/05/22 06:34:44;;;;;;;4.80;4.40;;;23.70;79.10;;;;;;5054847;28;20452;-61
2022/05/22 06:37:14;;;;;;;4.97;4.60;;;23.60;78.80;;;;;;5054984;28;20608;-64
2022/05/22 06:39:54;;;;;;;4.47;4.07;;;23.60;79.00;;;;;;5054584;28;20810;-61
2022/05/22 06:42:24;;;;;;;4.20;3.80;;;23.60;79.10;;;;;;5054567;28;20440;-62
2022/05/22 06:44:54;;;;;;;5.37;5.07;;;23.60;79.00;;;;;;5054762;28;20440;-63
2022/05/22 06:47:21;;;;;;;4.53;4.10;;;23.80;78.90;;;;;;5054657;28;20449;-57
2022/05/22 06:49:48;;;;;;;9.93;5.17;;;23.90;78.10;;;;;;5054554;28;20476;-58
2022/05/22 06:52:15;;;;;;;4.30;4.00;;;23.80;77.40;;;;;;5054296;28;20748;-59
2022/05/22 06:54:42;;;;;;;3.87;3.67;;;23.70;77.50;;;;;;5054051;28;20440;-59
2022/05/22 06:57:10;;;;;;;3.73;3.60;;;23.70;77.80;;;;;;5054010;28;20467;-58
2022/05/22 06:59:37;;;;;;;4.50;4.20;;;23.60;77.90;;;;;;5053881;28;20452;-62
2022/05/22 07:02:05;;;;;;;4.07;3.77;;;23.60;77.90;;;;;;5054387;28;20484;-60
2022/05/22 07:04:32;;;;;;;4.13;3.83;;;23.60;78.10;;;;;;5053992;28;20819;-60
2022/05/22 07:06:59;;;;;;;3.90;3.70;;;23.60;78.00;;;;;;5053853;28;20464;-60
2022/05/22 07:09:27;;;;;;;4.20;3.80;;;23.60;78.10;;;;;;5054114;28;20440;-58
2022/05/22 07:11:55;;;;;;;4.73;4.43;;;23.60;78.20;;;;;;5053771;28;20440;-60
2022/05/22 07:14:23;;;;;;;3.83;3.63;;;23.60;78.20;;;;;;5053581;28;20480;-59
2022/05/22 07:16:50;;;;;;;3.83;3.63;;;23.60;78.20;;;;;;5053810;28;20468;-60
2022/05/22 07:19:19;;;;;;;4.00;3.80;;;23.60;78.10;;;;;;5053554;28;20440;-60
2022/05/22 07:21:47;;;;;;;3.93;3.73;;;23.60;78.30;;;;;;5053364;28;20499;-60
2022/05/22 07:24:13;;;;;;;4.60;4.10;;;23.60;78.30;;;;;;5053381;28;21010;-63
2022/05/22 07:26:41;;;;;;;5.33;5.03;;;23.60;78.30;;;;;;5053432;28;20472;-62
2022/05/22 07:29:08;;;;;;;5.10;4.70;;;23.60;78.30;;;;;;5053386;28;20448;-62
2022/05/22 07:31:35;;;;;;;4.20;3.90;;;23.60;78.30;;;;;;5053452;28;20444;-63
2022/05/22 07:34:02;;;;;;;3.87;3.67;;;23.60;78.30;;;;;;5053269;28;20471;-62
2022/05/22 07:36:30;;;;;;;3.67;3.47;;;23.60;78.10;;;;;;5053233;28;20838;-61
2022/05/22 07:38:57;;;;;;;4.17;3.77;;;23.60;78.10;;;;;;5053219;28;20448;-61
2022/05/22 07:41:24;;;;;;;3.60;3.40;;;23.60;78.10;;;;;;5053196;28;20525;-62
2022/05/22 07:43:52;;;;;;;3.87;3.57;;;23.60;78.30;;;;;;5053309;28;20452;-61
2022/05/22 07:46:19;;;;;;;3.33;3.10;;;23.60;79.20;;;;;;5052724;28;20479;-63
2022/05/22 07:48:45;;;;;;;3.43;3.33;;;23.60;78.30;;;;;;5052788;28;20459;-61
2022/05/22 07:51:13;;;;;;;3.83;3.53;;;23.70;78.50;;;;;;5052802;28;20444;-61
2022/05/22 07:53:41;;;;;;;4.47;4.07;;;23.70;79.00;;;;;;5052228;28;20448;-60
2022/05/22 07:56:09;;;;;;;3.50;3.30;;;23.70;78.80;;;;;;5053169;28;20479;-59
2022/05/22 07:58:36;;;;;;;3.10;2.90;;;23.70;78.80;;;;;;5052840;28;20958;-60
2022/05/22 08:01:04;;;;;;;3.67;3.47;;;23.70;78.90;;;;;;5053066;28;20486;-58
2022/05/22 08:03:32;;;;;;;3.37;3.27;;;23.60;78.80;;;;;;5052913;28;20453;-61
2022/05/22 08:06:00;;;;;;;3.20;3.10;;;23.60;78.80;;;;;;5052802;28;20464;-63
2022/05/22 08:08:27;;;;;;;3.57;3.37;;;23.70;79.10;;;;;;5053050;28;20444;-62
2022/05/22 08:10:58;;;;;;;3.60;3.30;;;23.70;79.40;;;;;;5052914;28;20558;-64
2022/05/22 08:13:26;;;;;;;4.90;4.27;;;23.70;79.40;;;;;;5052845;28;20934;-60
2022/05/22 08:15:53;;;;;;;4.47;4.20;;;23.70;79.30;;;;;;5052994;28;20460;-63
2022/05/22 08:18:20;;;;;;;3.90;3.70;;;23.70;79.10;;;;;;5052514;28;20460;-62
2022/05/22 08:20:49;;;;;;;3.70;3.60;;;24.30;77.00;;;;;;5052581;28;20939;-64
2022/05/22 08:23:19;;;;;;;4.40;4.03;;;24.30;76.30;;;;;;5052681;28;20459;-65
2022/05/22 08:25:47;;;;;;;3.40;3.10;;;24.30;76.50;;;;;;5052637;28;20526;-64
2022/05/22 08:28:15;;;;;;;3.53;3.33;;;24.20;76.80;;;;;;5052217;28;21017;-65
2022/05/22 08:30:43;;;;;;;3.30;3.00;;;24.10;77.20;;;;;;5052688;28;20939;-62
2022/05/22 08:33:10;;;;;;;3.30;3.00;;;24.10;77.40;;;;;;5052741;28;20451;-62
2022/05/22 08:35:39;;;;;;;3.50;3.30;;;24.00;77.40;;;;;;5053001;28;20835;-62
2022/05/22 08:38:07;;;;;;;3.93;3.50;;;24.00;77.70;;;;;;5052679;28;20455;-59
2022/05/22 08:40:55;;;;;;;3.10;2.90;;;24.00;77.80;;;;;;5052222;28;20457;-66
2022/05/22 08:43:32;;;;;;;3.63;3.37;;;24.00;78.70;;;;;;5052243;28;20451;-65
2022/05/22 08:46:06;;;;;;;3.37;3.03;;;24.00;78.70;;;;;;5052870;28;20460;-64
2022/05/22 08:48:35;;;;;;;3.40;3.20;;;23.90;78.10;;;;;;5052469;28;20443;-65
2022/05/22 08:51:05;;;;;;;3.57;3.37;;;23.90;78.10;;;;;;5052553;28;20443;-65
2022/05/22 08:53:38;;;;;;;3.90;3.70;;;23.90;77.70;;;;;;5052563;28;20436;-66
2022/05/22 08:59:02;;;;;;;2.50;2.40;;;23.90;77.70;;;;;;5030835;28;20443;-66
2022/05/22 09:01:44;;;;;;;3.27;3.07;;;23.90;77.80;;;;;;5052109;28;20501;-66
2022/05/22 09:04:26;;;;;;;2.80;2.60;;;23.90;77.80;;;;;;5054902;28;20448;-65
2022/05/22 09:07:06;;;;;;;3.90;3.60;;;23.90;78.30;;;;;;5057741;28;20506;-66
2022/05/22 09:09:35;;;;;;;2.83;2.73;;;23.90;77.90;;;;;;5058005;28;20443;-65
2022/05/22 09:12:25;;;;;;;2.90;2.70;;;24.00;77.10;;;;;;5058093;28;20444;-65
2022/05/22 09:15:04;;;;;;;3.83;3.57;;;24.00;76.90;;;;;;5017877;28;20460;-65
2022/05/22 09:17:36;;;;;;;4.00;3.17;;;24.00;76.30;;;;;;5038694;28;20448;-65
2022/05/22 09:20:10;;;;;;;3.17;2.97;;;24.00;76.30;;;;;;5038217;28;20449;-65
2022/05/22 09:22:44;;;;;;;3.10;2.90;;;24.00;76.20;;;;;;5038376;28;20987;-65
2022/05/22 09:25:23;;;;;;;3.20;3.03;;;24.00;75.80;;;;;;5045076;28;21031;-65
2022/05/22 09:28:00;;;;;;;3.50;3.20;;;24.00;75.80;;;;;;5058586;28;20466;-65
2022/05/22 09:30:36;;;;;;;3.00;2.80;;;24.00;75.80;;;;;;5058584;28;20498;-64
2022/05/22 09:33:13;;;;;;;3.17;2.97;;;24.00;75.60;;;;;;5059019;28;20443;-64
2022/05/22 09:35:54;;;;;;;3.40;3.10;;;24.00;75.60;;;;;;5058639;28;20455;-65
2022/05/22 09:38:41;;;;;;;3.42;2.80;;;24.00;75.60;;;;;;5056981;28;20979;-62
2022/05/22 09:41:19;;;;;;;2.83;2.73;;;24.00;76.10;;;;;;5058452;28;20202;-62
2022/05/22 09:44:05;;;;;;;3.90;3.60;;;24.00;76.00;;;;;;5058694;28;20443;-62
2022/05/22 09:46:49;;;;;;;3.00;2.80;;;24.00;76.00;;;;;;5058523;28;20486;-62
2022/05/22 09:49:32;;;;;;;3.03;2.87;;;23.90;76.10;;;;;;5058156;28;20451;-62
2022/05/22 09:52:07;;;;;;;2.80;2.60;;;23.90;76.30;;;;;;5058446;28;20501;-63
2022/05/22 09:55:04;;;;;;;3.35;3.05;;;23.90;76.80;;;;;;5051460;28;20447;-69
2022/05/22 09:57:49;;;;;;;3.40;3.20;;;24.10;78.60;;;;;;5055816;28;20198;-67
2022/05/22 10:00:19;;;;;;;3.33;3.13;;;24.10;78.40;;;;;;5046579;28;20969;-64
2022/05/22 10:02:56;;;;;;;3.07;2.90;;;24.20;78.40;;;;;;5057371;28;20479;-64
2022/05/22 10:05:34;;;;;;;3.47;3.17;;;24.10;77.90;;;;;;5057505;28;20463;-65
2022/05/22 10:08:08;;;;;;;3.47;3.20;;;24.10;78.00;;;;;;5057664;28;20458;-64
2022/05/22 10:10:41;;;;;;;3.13;3.00;;;24.10;78.90;;;;;;5057749;28;20443;-63
2022/05/22 10:13:14;;;;;;;3.27;3.07;;;24.10;79.00;;;;;;5057556;28;20447;-63
2022/05/22 10:15:50;;;;;;;3.33;3.13;;;24.10;79.20;;;;;;5055045;28;20456;-67
2022/05/22 10:18:39;;;;;;;4.13;3.93;;;24.10;79.40;;;;;;5054031;28;20957;-67
2022/05/22 10:21:17;;;;;;;5.00;4.60;;;24.20;81.20;;;;;;5054169;28;20440;-67
2022/05/22 10:24:12;;;;;;;3.47;3.17;;;24.20;82.30;;;;;;5054024;28;20643;-66
2022/05/22 10:26:54;;;;;;;4.03;3.67;;;24.20;82.30;;;;;;5039215;28;20480;-62
2022/05/22 10:29:24;;;;;;;3.23;2.93;;;24.30;82.90;;;;;;5053916;28;20447;-64
2022/05/22 10:32:04;;;;;;;3.60;3.40;;;24.20;82.60;;;;;;5044468;28;20978;-67
2022/05/22 10:34:39;;;;;;;5.57;3.13;;;24.20;83.20;;;;;;5053108;28;20810;-68
2022/05/22 10:37:15;;;;;;;4.00;3.70;;;24.20;84.70;;;;;;5039684;28;21026;-66
2022/05/22 10:39:42;;;;;;;3.60;3.40;;;24.30;84.10;;;;;;5053723;28;20621;-66
2022/05/22 10:45:06;;;;;;;4.20;3.80;;;24.40;82.60;;;;;;5045877;28;20977;-66
2022/05/22 10:47:34;;;;;;;4.70;4.40;;;24.40;82.30;;;;;;5053154;28;20911;-67
2022/05/22 10:50:16;;;;;;;3.43;3.13;;;24.40;81.50;;;;;;5053284;28;20943;-63
2022/05/22 10:52:43;;;;;;;6.60;3.77;;;24.40;82.50;;;;;;5053214;28;20448;-66
2022/05/22 10:55:32;;;;;;;3.70;3.50;;;24.40;82.00;;;;;;5053040;28;20451;-65
2022/05/22 10:58:01;;;;;;;2.60;2.50;;;24.40;82.00;;;;;;5052827;28;20448;-63
2022/05/22 11:00:28;;;;;;;3.20;3.10;;;24.50;81.30;;;;;;5053331;28;20448;-64
2022/05/22 11:02:55;;;;;;;11.77;4.97;;;24.50;80.50;;;;;;5052952;28;20480;-70
2022/05/22 11:05:28;;;;;;;3.63;3.30;;;24.60;81.80;;;;;;5053117;28;20476;-70
2022/05/22 11:07:56;;;;;;;3.87;3.57;;;24.50;81.50;;;;;;5053000;28;20939;-68
2022/05/22 11:10:25;;;;;;;4.33;3.47;;;24.50;79.80;;;;;;5053149;28;20441;-70
2022/05/22 11:13:03;;;;;;;3.60;3.33;;;24.50;79.00;;;;;;5053130;28;20464;-69
2022/05/22 11:15:32;;;;;;;5.60;5.23;;;24.50;78.80;;;;;;5052570;28;20472;-69
2022/05/22 11:18:08;;;;;;;3.87;3.57;;;24.50;79.00;;;;;;5053071;28;20823;-70
2022/05/22 11:20:43;;;;;;;3.70;3.53;;;24.50;78.50;;;;;;5053016;28;20467;-69
2022/05/22 11:23:23;;;;;;;3.30;3.20;;;24.50;78.40;;;;;;5052750;28;20498;-69
2022/05/22 11:25:58;;;;;;;3.73;3.40;;;24.50;78.90;;;;;;5052339;28;20978;-69
2022/05/22 11:28:54;;;;;;;4.60;4.20;;;24.50;79.30;;;;;;5051379;28;20857;-69
2022/05/22 11:31:42;;;;;;;4.30;4.00;;;24.50;77.40;;;;;;5031802;28;20459;-69
2022/05/22 11:34:43;;;;;;;6.10;4.20;;;24.50;75.30;;;;;;5036009;28;20497;-71
2022/05/22 11:37:22;;;;;;;4.43;4.10;;;24.50;74.50;;;;;;5051528;28;20838;-66
2022/05/22 11:40:01;;;;;;;5.60;5.20;;;24.50;72.10;;;;;;5038758;28;20447;-68
2022/05/22 11:42:35;;;;;;;3.63;3.53;;;24.40;70.30;;;;;;5036313;28;20471;-70
2022/05/22 11:45:19;;;;;;;4.20;3.90;;;24.40;69.80;;;;;;5052514;28;20505;-70
2022/05/22 11:48:09;;;;;;;4.27;3.87;;;24.40;69.20;;;;;;5052210;28;20455;-69
2022/05/22 11:50:39;;;;;;;5.13;4.30;;;24.40;69.10;;;;;;5048407;28;20456;-68
2022/05/22 11:53:35;;;;;;;5.07;4.63;;;24.40;68.60;;;;;;5052306;28;20467;-72
2022/05/22 11:56:29;;;;;;;4.30;4.00;;;24.40;68.10;;;;;;5052153;28;20463;-70
2022/05/22 11:59:03;;;;;;;3.60;3.40;;;24.50;68.20;;;;;;5051653;28;20444;-69
2022/05/22 12:01:36;;;;;;;3.37;3.27;;;24.50;67.40;;;;;;5052010;28;20471;-70
2022/05/22 12:04:31;;;;;;;3.90;3.70;;;24.40;66.80;;;;;;5051638;28;20432;-67
2022/05/22 12:07:16;;;;;;;4.00;3.70;;;24.40;66.90;;;;;;5051880;28;20464;-65
2022/05/22 12:09:52;;;;;;;3.70;3.60;;;24.50;67.10;;;;;;5051505;28;20452;-63
2022/05/22 12:12:30;;;;;;;5.87;5.57;;;24.40;66.30;;;;;;5051615;28;20436;-68
2022/05/22 12:15:04;;;;;;;7.07;6.47;;;24.50;66.10;;;;;;5051799;28;20444;-69
2022/05/22 12:17:39;;;;;;;5.93;5.43;;;24.50;65.20;;;;;;5051666;28;20451;-68
2022/05/22 12:20:13;;;;;;;5.33;5.20;;;24.40;64.10;;;;;;5051799;28;20450;-72
2022/05/22 12:25:34;;;;;;;7.40;7.00;;;24.30;63.70;;;;;;5051760;28;20490;-73
2022/05/22 12:28:03;;;;;;;7.23;6.73;;;24.40;63.50;;;;;;5051363;28;20455;-74
2022/05/22 12:30:37;;;;;;;6.43;6.03;;;24.30;63.00;;;;;;5051553;28;20452;-75
2022/05/22 12:33:09;;;;;;;4.20;3.90;;;24.30;61.90;;;;;;5051926;28;20440;-66
2022/05/22 12:35:38;;;;;;;4.83;4.53;;;24.40;62.30;;;;;;5050315;28;20468;-65
2022/05/22 12:38:07;;;;;;;3.93;3.63;;;24.40;62.80;;;;;;5049553;28;20455;-68
2022/05/22 12:40:43;;;;;;;4.00;3.80;;;24.50;60.90;;;;;;5051557;28;20440;-69
2022/05/22 12:43:13;;;;;;;4.40;4.20;;;24.50;61.10;;;;;;5051390;28;20475;-66
2022/05/22 12:45:40;;;;;;;4.70;4.50;;;24.50;60.80;;;;;;5051088;28;20468;-68
2022/05/22 12:48:24;;;;;;;7.97;7.23;;;24.50;60.40;;;;;;5051179;28;20977;-69
2022/05/22 12:50:54;;;;;;;4.57;4.17;;;24.50;59.90;;;;;;5051309;28;20444;-67
2022/05/22 12:53:28;;;;;;;4.73;4.43;;;24.50;59.70;;;;;;5051582;28;20471;-68
2022/05/22 12:55:57;;;;;;;5.23;5.03;;;24.60;59.20;;;;;;5051526;28;20472;-66
2022/05/22 12:58:37;;;;;;;5.13;5.03;;;24.60;59.20;;;;;;5051142;28;20935;-68
2022/05/22 13:01:04;;;;;;;5.17;4.87;;;24.70;60.30;;;;;;5050700;28;20467;-63
2022/05/22 13:03:36;;;;;;;4.83;4.53;;;24.70;59.40;;;;;;5050943;28;20845;-64
2022/05/22 13:06:06;;;;;;;4.93;4.73;;;24.70;58.70;;;;;;5051154;28;20500;-62
2022/05/22 13:08:39;;;;;;;5.43;5.03;;;24.70;58.60;;;;;;5050968;28;20472;-61
2022/05/22 13:11:13;;;;;;;5.53;5.10;;;24.70;58.00;;;;;;5051278;28;20786;-63
2022/05/22 13:13:50;;;;;;;4.73;4.47;;;24.70;58.00;;;;;;5050819;28;20440;-61